sensor_id;sensor_type;location;lat;lon;timestamp;P1;durP1;ratioP1;P2;durP2;ratioP2
2099;SDS011;1055;48.854;9.302;2023-08-20T00:01:12;19.73;;;15.20;;
2099;SDS011;1055;48.854;9.302;2023-08-20T00:03:42;17.40;;;15.50;;
2099;SDS011;1055;48.854;9.302;2023-08-20T00:06:08;22.03;;;16.20;;
2099;SDS011;1055;48.854;9.302;2023-08-20T00:08:34;25.40;;;16.70;;
2099;SDS011;1055;48.854;9.302;2023-08-20T00:11:00;18.53;;;15.73;;
2099;SDS011;1055;48.854;9.302;2023-08-20T00:13:26;18.27;;;15.87;;
2099;SDS011;1055;48.854;9.302;2023-08-20T00:15:53;17.30;;;15.20;;
2099;SDS011;1055;48.854;9.302;2023-08-20T00:18:19;17.20;;;15.40;;
2099;SDS011;1055;48.854;9.302;2023-08-20T00:20:45;17.47;;;15.67;;
2099;SDS011;1055;48.854;9.302;2023-08-20T00:23:10;16.90;;;14.67;;
2099;SDS011;1055;48.854;9.302;2023-08-20T00:25:36;17.60;;;14.73;;
2099;SDS011;1055;48.854;9.302;2023-08-20T00:28:02;20.90;;;15.80;;
2099;SDS011;1055;48.854;9.302;2023-08-20T00:30:28;17.23;;;15.43;;
2099;SDS011;1055;48.854;9.302;2023-08-20T00:32:54;17.43;;;15.63;;
2099;SDS011;1055;48.854;9.302;2023-08-20T00:35:20;18.97;;;15.97;;
2099;SDS011;1055;48.854;9.302;2023-08-20T00:37:46;17.00;;;15.13;;
2099;SDS011;1055;48.854;9.302;2023-08-20T00:40:12;19.10;;;16.80;;
2099;SDS011;1055;48.854;9.302;2023-08-20T00:42:38;18.00;;;16.10;;
2099;SDS011;1055;48.854;9.302;2023-08-20T00:45:04;17.77;;;15.47;;
2099;SDS011;1055;48.854;9.302;2023-08-20T00:47:30;18.03;;;16.23;;
2099;SDS011;1055;48.854;9.302;2023-08-20T00:49:56;17.53;;;15.67;;
2099;SDS011;1055;48.854;9.302;2023-08-20T00:52:22;19.53;;;15.80;;
2099;SDS011;1055;48.854;9.302;2023-08-20T00:54:48;17.40;;;15.50;;
2099;SDS011;1055;48.854;9.302;2023-08-20T00:57:14;17.50;;;15.70;;
2099;SDS011;1055;48.854;9.302;2023-08-20T00:59:42;17.60;;;15.80;;
2099;SDS011;1055;48.854;9.302;2023-08-20T01:02:09;19.60;;;16.33;;
2099;SDS011;1055;48.854;9.302;2023-08-20T01:04:35;20.33;;;16.80;;
2099;SDS011;1055;48.854;9.302;2023-08-20T01:12:29;18.97;;;17.07;;
2099;SDS011;1055;48.854;9.302;2023-08-20T01:14:56;19.57;;;16.80;;
2099;SDS011;1055;48.854;9.302;2023-08-20T01:17:21;19.30;;;16.83;;
2099;SDS011;1055;48.854;9.302;2023-08-20T01:19:47;19.00;;;16.97;;
2099;SDS011;1055;48.854;9.302;2023-08-20T01:30:29;18.57;;;16.67;;
2099;SDS011;1055;48.854;9.302;2023-08-20T01:32:56;23.23;;;17.53;;
2099;SDS011;1055;48.854;9.302;2023-08-20T01:35:24;19.83;;;17.37;;
2099;SDS011;1055;48.854;9.302;2023-08-20T01:37:51;19.50;;;17.60;;
2099;SDS011;1055;48.854;9.302;2023-08-20T01:40:17;19.90;;;17.43;;
2099;SDS011;1055;48.854;9.302;2023-08-20T01:42:42;18.87;;;16.87;;
2099;SDS011;1055;48.854;9.302;2023-08-20T01:45:08;17.60;;;15.80;;
2099;SDS011;1055;48.854;9.302;2023-08-20T01:50:56;18.87;;;16.97;;
2099;SDS011;1055;48.854;9.302;2023-08-20T01:53:22;18.97;;;16.33;;
2099;SDS011;1055;48.854;9.302;2023-08-20T01:55:47;18.30;;;16.40;;
2099;SDS011;1055;48.854;9.302;2023-08-20T01:58:13;19.33;;;17.23;;
2099;SDS011;1055;48.854;9.302;2023-08-20T02:00:38;25.30;;;17.20;;
2099;SDS011;1055;48.854;9.302;2023-08-20T02:03:04;18.57;;;15.90;;
2099;SDS011;1055;48.854;9.302;2023-08-20T02:05:29;21.30;;;17.77;;
2099;SDS011;1055;48.854;9.302;2023-08-20T02:07:55;19.17;;;17.17;;
2099;SDS011;1055;48.854;9.302;2023-08-20T02:10:20;18.83;;;17.00;;
2099;SDS011;1055;48.854;9.302;2023-08-20T02:12:46;20.37;;;18.03;;
2099;SDS011;1055;48.854;9.302;2023-08-20T02:15:11;19.00;;;16.87;;
2099;SDS011;1055;48.854;9.302;2023-08-20T02:17:37;19.97;;;17.87;;
2099;SDS011;1055;48.854;9.302;2023-08-20T02:20:03;19.20;;;17.20;;
2099;SDS011;1055;48.854;9.302;2023-08-20T02:22:29;21.27;;;19.17;;
2099;SDS011;1055;48.854;9.302;2023-08-20T02:24:55;21.10;;;18.93;;
2099;SDS011;1055;48.854;9.302;2023-08-20T02:27:21;19.63;;;17.63;;
2099;SDS011;1055;48.854;9.302;2023-08-20T02:29:46;19.67;;;17.50;;
2099;SDS011;1055;48.854;9.302;2023-08-20T02:32:12;19.60;;;17.50;;
2099;SDS011;1055;48.854;9.302;2023-08-20T02:34:37;21.27;;;17.80;;
2099;SDS011;1055;48.854;9.302;2023-08-20T02:37:03;18.20;;;16.40;;
2099;SDS011;1055;48.854;9.302;2023-08-20T02:39:29;19.77;;;17.67;;
2099;SDS011;1055;48.854;9.302;2023-08-20T02:41:54;20.60;;;17.23;;
2099;SDS011;1055;48.854;9.302;2023-08-20T02:44:20;23.63;;;18.83;;
2099;SDS011;1055;48.854;9.302;2023-08-20T02:46:45;20.10;;;18.10;;
2099;SDS011;1055;48.854;9.302;2023-08-20T02:49:11;20.97;;;18.77;;
2099;SDS011;1055;48.854;9.302;2023-08-20T02:51:37;20.77;;;18.60;;
2099;SDS011;1055;48.854;9.302;2023-08-20T02:54:02;20.80;;;18.37;;
2099;SDS011;1055;48.854;9.302;2023-08-20T02:56:28;21.60;;;18.63;;
2099;SDS011;1055;48.854;9.302;2023-08-20T02:58:54;22.23;;;19.07;;
2099;SDS011;1055;48.854;9.302;2023-08-20T03:01:23;20.40;;;18.20;;
2099;SDS011;1055;48.854;9.302;2023-08-20T03:03:50;21.50;;;19.20;;
2099;SDS011;1055;48.854;9.302;2023-08-20T03:06:16;22.33;;;19.93;;
2099;SDS011;1055;48.854;9.302;2023-08-20T03:08:41;22.13;;;19.70;;
2099;SDS011;1055;48.854;9.302;2023-08-20T03:11:07;21.37;;;19.03;;
2099;SDS011;1055;48.854;9.302;2023-08-20T03:13:33;22.43;;;19.70;;
2099;SDS011;1055;48.854;9.302;2023-08-20T03:15:59;21.40;;;19.10;;
2099;SDS011;1055;48.854;9.302;2023-08-20T03:18:25;21.60;;;19.37;;
2099;SDS011;1055;48.854;9.302;2023-08-20T03:20:51;20.90;;;18.80;;
2099;SDS011;1055;48.854;9.302;2023-08-20T03:23:16;22.40;;;20.10;;
2099;SDS011;1055;48.854;9.302;2023-08-20T03:25:42;23.23;;;20.67;;
2099;SDS011;1055;48.854;9.302;2023-08-20T03:28:07;25.47;;;20.93;;
2099;SDS011;1055;48.854;9.302;2023-08-20T03:30:33;23.07;;;20.63;;
2099;SDS011;1055;48.854;9.302;2023-08-20T03:32:59;23.80;;;21.07;;
2099;SDS011;1055;48.854;9.302;2023-08-20T03:35:25;22.67;;;20.33;;
2099;SDS011;1055;48.854;9.302;2023-08-20T03:37:50;24.90;;;20.63;;
2099;SDS011;1055;48.854;9.302;2023-08-20T03:40:16;23.07;;;20.67;;
2099;SDS011;1055;48.854;9.302;2023-08-20T03:42:43;23.20;;;20.73;;
2099;SDS011;1055;48.854;9.302;2023-08-20T03:45:09;22.50;;;20.10;;
2099;SDS011;1055;48.854;9.302;2023-08-20T03:47:34;22.13;;;19.83;;
2099;SDS011;1055;48.854;9.302;2023-08-20T03:50:01;22.53;;;19.83;;
2099;SDS011;1055;48.854;9.302;2023-08-20T03:52:27;20.97;;;18.73;;
2099;SDS011;1055;48.854;9.302;2023-08-20T03:54:53;24.13;;;20.30;;
2099;SDS011;1055;48.854;9.302;2023-08-20T03:57:18;22.53;;;19.70;;
2099;SDS011;1055;48.854;9.302;2023-08-20T03:59:44;24.90;;;19.73;;
2099;SDS011;1055;48.854;9.302;2023-08-20T04:02:10;21.87;;;19.57;;
2099;SDS011;1055;48.854;9.302;2023-08-20T04:04:36;21.97;;;19.67;;
2099;SDS011;1055;48.854;9.302;2023-08-20T04:07:02;21.93;;;19.10;;
2099;SDS011;1055;48.854;9.302;2023-08-20T04:09:28;20.93;;;18.10;;
2099;SDS011;1055;48.854;9.302;2023-08-20T04:11:53;22.23;;;18.70;;
2099;SDS011;1055;48.854;9.302;2023-08-20T04:14:19;20.70;;;18.63;;
2099;SDS011;1055;48.854;9.302;2023-08-20T04:16:44;23.60;;;18.67;;
2099;SDS011;1055;48.854;9.302;2023-08-20T04:19:10;20.03;;;17.90;;
2099;SDS011;1055;48.854;9.302;2023-08-20T04:21:36;25.00;;;19.80;;
2099;SDS011;1055;48.854;9.302;2023-08-20T04:24:01;20.80;;;18.53;;
2099;SDS011;1055;48.854;9.302;2023-08-20T04:26:27;21.60;;;19.30;;
2099;SDS011;1055;48.854;9.302;2023-08-20T04:28:53;21.60;;;19.50;;
2099;SDS011;1055;48.854;9.302;2023-08-20T04:31:18;19.73;;;17.73;;
2099;SDS011;1055;48.854;9.302;2023-08-20T04:33:45;21.87;;;19.63;;
2099;SDS011;1055;48.854;9.302;2023-08-20T04:36:11;21.10;;;19.00;;
2099;SDS011;1055;48.854;9.302;2023-08-20T04:38:36;22.93;;;19.00;;
2099;SDS011;1055;48.854;9.302;2023-08-20T04:41:02;21.10;;;18.90;;
2099;SDS011;1055;48.854;9.302;2023-08-20T04:43:28;22.43;;;17.97;;
2099;SDS011;1055;48.854;9.302;2023-08-20T04:45:53;23.63;;;18.97;;
2099;SDS011;1055;48.854;9.302;2023-08-20T04:48:19;22.07;;;19.83;;
2099;SDS011;1055;48.854;9.302;2023-08-20T04:50:44;23.00;;;20.33;;
2099;SDS011;1055;48.854;9.302;2023-08-20T04:53:10;22.67;;;20.20;;
2099;SDS011;1055;48.854;9.302;2023-08-20T04:55:35;21.77;;;19.47;;
2099;SDS011;1055;48.854;9.302;2023-08-20T04:58:01;22.90;;;20.60;;
2099;SDS011;1055;48.854;9.302;2023-08-20T05:00:27;24.80;;;20.67;;
2099;SDS011;1055;48.854;9.302;2023-08-20T05:02:53;21.20;;;19.00;;
2099;SDS011;1055;48.854;9.302;2023-08-20T05:05:21;24.93;;;20.40;;
2099;SDS011;1055;48.854;9.302;2023-08-20T05:07:46;23.13;;;20.67;;
2099;SDS011;1055;48.854;9.302;2023-08-20T05:10:12;23.77;;;21.27;;
2099;SDS011;1055;48.854;9.302;2023-08-20T05:12:37;22.97;;;20.07;;
2099;SDS011;1055;48.854;9.302;2023-08-20T05:15:03;23.17;;;20.80;;
2099;SDS011;1055;48.854;9.302;2023-08-20T05:17:29;23.67;;;20.70;;
2099;SDS011;1055;48.854;9.302;2023-08-20T05:19:55;22.13;;;19.80;;
2099;SDS011;1055;48.854;9.302;2023-08-20T05:22:20;22.53;;;19.23;;
2099;SDS011;1055;48.854;9.302;2023-08-20T05:24:46;22.83;;;20.53;;
2099;SDS011;1055;48.854;9.302;2023-08-20T05:27:12;23.70;;;20.30;;
2099;SDS011;1055;48.854;9.302;2023-08-20T05:29:39;24.13;;;20.73;;
2099;SDS011;1055;48.854;9.302;2023-08-20T05:32:06;23.60;;;20.77;;
2099;SDS011;1055;48.854;9.302;2023-08-20T05:34:32;22.57;;;20.17;;
2099;SDS011;1055;48.854;9.302;2023-08-20T05:36:57;22.40;;;20.03;;
2099;SDS011;1055;48.854;9.302;2023-08-20T05:39:23;21.87;;;18.87;;
2099;SDS011;1055;48.854;9.302;2023-08-20T05:41:50;23.60;;;19.13;;
2099;SDS011;1055;48.854;9.302;2023-08-20T05:44:19;22.07;;;19.60;;
2099;SDS011;1055;48.854;9.302;2023-08-20T05:46:45;20.10;;;18.00;;
2099;SDS011;1055;48.854;9.302;2023-08-20T05:49:12;20.17;;;18.00;;
2099;SDS011;1055;48.854;9.302;2023-08-20T05:51:38;25.60;;;18.90;;
2099;SDS011;1055;48.854;9.302;2023-08-20T05:54:04;20.37;;;18.30;;
2099;SDS011;1055;48.854;9.302;2023-08-20T05:56:29;19.80;;;17.70;;
2099;SDS011;1055;48.854;9.302;2023-08-20T05:58:55;21.47;;;19.30;;
2099;SDS011;1055;48.854;9.302;2023-08-20T06:01:21;21.80;;;19.57;;
2099;SDS011;1055;48.854;9.302;2023-08-20T06:03:46;20.93;;;18.80;;
2099;SDS011;1055;48.854;9.302;2023-08-20T06:06:12;21.20;;;19.00;;
2099;SDS011;1055;48.854;9.302;2023-08-20T06:08:37;20.17;;;17.97;;
2099;SDS011;1055;48.854;9.302;2023-08-20T06:11:03;24.13;;;19.50;;
2099;SDS011;1055;48.854;9.302;2023-08-20T06:13:28;20.67;;;18.57;;
2099;SDS011;1055;48.854;9.302;2023-08-20T06:15:54;22.00;;;19.60;;
2099;SDS011;1055;48.854;9.302;2023-08-20T06:18:19;22.10;;;19.73;;
2099;SDS011;1055;48.854;9.302;2023-08-20T06:20:45;21.97;;;19.70;;
2099;SDS011;1055;48.854;9.302;2023-08-20T06:23:10;21.30;;;18.47;;
2099;SDS011;1055;48.854;9.302;2023-08-20T06:25:37;19.17;;;17.20;;
2099;SDS011;1055;48.854;9.302;2023-08-20T06:28:02;19.63;;;17.63;;
2099;SDS011;1055;48.854;9.302;2023-08-20T06:30:28;20.17;;;18.07;;
2099;SDS011;1055;48.854;9.302;2023-08-20T06:32:54;23.80;;;19.03;;
2099;SDS011;1055;48.854;9.302;2023-08-20T06:35:19;21.00;;;18.77;;
2099;SDS011;1055;48.854;9.302;2023-08-20T06:37:45;21.60;;;19.40;;
2099;SDS011;1055;48.854;9.302;2023-08-20T06:40:11;20.93;;;18.40;;
2099;SDS011;1055;48.854;9.302;2023-08-20T06:42:38;19.80;;;17.70;;
2099;SDS011;1055;48.854;9.302;2023-08-20T06:45:04;23.17;;;18.57;;
2099;SDS011;1055;48.854;9.302;2023-08-20T06:47:31;20.33;;;18.23;;
2099;SDS011;1055;48.854;9.302;2023-08-20T06:49:56;20.73;;;18.30;;
2099;SDS011;1055;48.854;9.302;2023-08-20T06:52:22;18.50;;;16.70;;
2099;SDS011;1055;48.854;9.302;2023-08-20T06:54:48;23.50;;;18.30;;
2099;SDS011;1055;48.854;9.302;2023-08-20T06:57:13;19.73;;;17.63;;
2099;SDS011;1055;48.854;9.302;2023-08-20T06:59:39;18.97;;;16.70;;
2099;SDS011;1055;48.854;9.302;2023-08-20T07:02:05;19.90;;;17.73;;
2099;SDS011;1055;48.854;9.302;2023-08-20T07:04:30;19.47;;;17.37;;
2099;SDS011;1055;48.854;9.302;2023-08-20T07:06:58;19.90;;;17.60;;
2099;SDS011;1055;48.854;9.302;2023-08-20T07:09:24;17.80;;;15.73;;
2099;SDS011;1055;48.854;9.302;2023-08-20T07:11:49;19.03;;;16.97;;
2099;SDS011;1055;48.854;9.302;2023-08-20T07:14:15;18.77;;;16.60;;
2099;SDS011;1055;48.854;9.302;2023-08-20T07:16:40;19.37;;;17.20;;
2099;SDS011;1055;48.854;9.302;2023-08-20T07:19:06;27.33;;;19.30;;
2099;SDS011;1055;48.854;9.302;2023-08-20T07:21:31;21.50;;;19.20;;
2099;SDS011;1055;48.854;9.302;2023-08-20T07:23:57;22.07;;;17.93;;
2099;SDS011;1055;48.854;9.302;2023-08-20T07:26:22;21.50;;;18.47;;
2099;SDS011;1055;48.854;9.302;2023-08-20T07:28:48;19.57;;;17.57;;
2099;SDS011;1055;48.854;9.302;2023-08-20T07:31:23;19.83;;;17.43;;
2099;SDS011;1055;48.854;9.302;2023-08-20T07:33:49;19.53;;;17.47;;
2099;SDS011;1055;48.854;9.302;2023-08-20T07:36:16;18.83;;;17.00;;
2099;SDS011;1055;48.854;9.302;2023-08-20T07:38:42;19.47;;;17.37;;
2099;SDS011;1055;48.854;9.302;2023-08-20T07:41:09;18.60;;;16.70;;
2099;SDS011;1055;48.854;9.302;2023-08-20T07:43:38;21.73;;;17.50;;
2099;SDS011;1055;48.854;9.302;2023-08-20T07:46:05;19.60;;;17.50;;
2099;SDS011;1055;48.854;9.302;2023-08-20T07:48:31;19.70;;;17.70;;
2099;SDS011;1055;48.854;9.302;2023-08-20T07:50:56;21.17;;;19.03;;
2099;SDS011;1055;48.854;9.302;2023-08-20T07:53:22;20.03;;;17.97;;
2099;SDS011;1055;48.854;9.302;2023-08-20T07:55:48;19.87;;;17.77;;
2099;SDS011;1055;48.854;9.302;2023-08-20T07:58:14;19.10;;;16.10;;
2099;SDS011;1055;48.854;9.302;2023-08-20T08:00:40;19.37;;;17.37;;
2099;SDS011;1055;48.854;9.302;2023-08-20T08:03:05;19.97;;;17.90;;
2099;SDS011;1055;48.854;9.302;2023-08-20T08:05:31;19.37;;;17.40;;
2099;SDS011;1055;48.854;9.302;2023-08-20T08:07:57;31.27;;;20.13;;
2099;SDS011;1055;48.854;9.302;2023-08-20T08:10:22;18.87;;;17.00;;
2099;SDS011;1055;48.854;9.302;2023-08-20T08:12:48;20.17;;;18.17;;
2099;SDS011;1055;48.854;9.302;2023-08-20T08:15:14;19.30;;;17.40;;
2099;SDS011;1055;48.854;9.302;2023-08-20T08:17:39;19.57;;;17.53;;
2099;SDS011;1055;48.854;9.302;2023-08-20T08:20:05;21.40;;;18.53;;
2099;SDS011;1055;48.854;9.302;2023-08-20T08:22:31;18.50;;;16.60;;
2099;SDS011;1055;48.854;9.302;2023-08-20T08:24:57;19.30;;;17.40;;
2099;SDS011;1055;48.854;9.302;2023-08-20T08:27:23;18.73;;;16.83;;
2099;SDS011;1055;48.854;9.302;2023-08-20T08:29:48;20.40;;;17.73;;
2099;SDS011;1055;48.854;9.302;2023-08-20T08:32:15;18.93;;;16.97;;
2099;SDS011;1055;48.854;9.302;2023-08-20T08:34:40;20.00;;;17.80;;
2099;SDS011;1055;48.854;9.302;2023-08-20T08:37:06;19.90;;;17.80;;
2099;SDS011;1055;48.854;9.302;2023-08-20T08:39:32;20.10;;;18.10;;
2099;SDS011;1055;48.854;9.302;2023-08-20T08:42:01;20.37;;;17.63;;
2099;SDS011;1055;48.854;9.302;2023-08-20T08:44:31;20.07;;;18.07;;
2099;SDS011;1055;48.854;9.302;2023-08-20T08:47:01;19.40;;;17.37;;
2099;SDS011;1055;48.854;9.302;2023-08-20T08:49:27;19.23;;;17.23;;
2099;SDS011;1055;48.854;9.302;2023-08-20T08:51:56;20.57;;;17.83;;
2099;SDS011;1055;48.854;9.302;2023-08-20T08:54:23;19.80;;;17.83;;
2099;SDS011;1055;48.854;9.302;2023-08-20T08:56:49;20.43;;;18.33;;
2099;SDS011;1055;48.854;9.302;2023-08-20T08:59:15;20.50;;;18.30;;
2099;SDS011;1055;48.854;9.302;2023-08-20T09:01:41;19.00;;;17.20;;
2099;SDS011;1055;48.854;9.302;2023-08-20T09:04:07;18.73;;;16.83;;
2099;SDS011;1055;48.854;9.302;2023-08-20T09:06:49;19.00;;;17.00;;
2099;SDS011;1055;48.854;9.302;2023-08-20T09:09:17;20.40;;;18.30;;
2099;SDS011;1055;48.854;9.302;2023-08-20T09:11:44;19.20;;;17.17;;
2099;SDS011;1055;48.854;9.302;2023-08-20T09:14:31;18.57;;;16.77;;
2099;SDS011;1055;48.854;9.302;2023-08-20T09:17:00;19.73;;;17.63;;
2099;SDS011;1055;48.854;9.302;2023-08-20T09:19:36;17.70;;;15.90;;
2099;SDS011;1055;48.854;9.302;2023-08-20T09:22:04;17.70;;;15.80;;
2099;SDS011;1055;48.854;9.302;2023-08-20T09:24:40;19.10;;;17.23;;
2099;SDS011;1055;48.854;9.302;2023-08-20T09:27:13;17.27;;;15.40;;
2099;SDS011;1055;48.854;9.302;2023-08-20T09:29:45;18.00;;;16.10;;
2099;SDS011;1055;48.854;9.302;2023-08-20T09:32:23;18.43;;;16.53;;
2099;SDS011;1055;48.854;9.302;2023-08-20T09:34:51;19.07;;;15.47;;
2099;SDS011;1055;48.854;9.302;2023-08-20T09:37:18;18.57;;;16.67;;
2099;SDS011;1055;48.854;9.302;2023-08-20T09:39:45;16.30;;;14.60;;
2099;SDS011;1055;48.854;9.302;2023-08-20T09:42:11;17.20;;;15.50;;
2099;SDS011;1055;48.854;9.302;2023-08-20T09:44:39;17.30;;;15.50;;
2099;SDS011;1055;48.854;9.302;2023-08-20T09:47:07;16.30;;;14.80;;
2099;SDS011;1055;48.854;9.302;2023-08-20T09:49:40;17.80;;;16.00;;
2099;SDS011;1055;48.854;9.302;2023-08-20T09:52:08;17.00;;;15.30;;
2099;SDS011;1055;48.854;9.302;2023-08-20T09:54:42;17.23;;;14.87;;
2099;SDS011;1055;48.854;9.302;2023-08-20T09:57:40;17.90;;;16.00;;
2099;SDS011;1055;48.854;9.302;2023-08-20T10:00:09;17.27;;;15.47;;
2099;SDS011;1055;48.854;9.302;2023-08-20T10:02:36;19.13;;;15.60;;
2099;SDS011;1055;48.854;9.302;2023-08-20T10:05:03;21.73;;;16.47;;
2099;SDS011;1055;48.854;9.302;2023-08-20T10:07:31;17.83;;;15.63;;
2099;SDS011;1055;48.854;9.302;2023-08-20T10:10:01;17.73;;;15.53;;
2099;SDS011;1055;48.854;9.302;2023-08-20T10:12:28;17.57;;;15.70;;
2099;SDS011;1055;48.854;9.302;2023-08-20T10:14:56;18.17;;;16.10;;
2099;SDS011;1055;48.854;9.302;2023-08-20T10:17:23;18.93;;;16.20;;
2099;SDS011;1055;48.854;9.302;2023-08-20T10:19:50;16.70;;;15.00;;
2099;SDS011;1055;48.854;9.302;2023-08-20T10:22:17;16.73;;;14.40;;
2099;SDS011;1055;48.854;9.302;2023-08-20T10:24:50;17.87;;;16.03;;
2099;SDS011;1055;48.854;9.302;2023-08-20T10:27:24;17.17;;;15.13;;
2099;SDS011;1055;48.854;9.302;2023-08-20T10:29:52;17.43;;;15.63;;
2099;SDS011;1055;48.854;9.302;2023-08-20T10:32:18;17.50;;;15.10;;
2099;SDS011;1055;48.854;9.302;2023-08-20T10:34:49;15.73;;;14.23;;
2099;SDS011;1055;48.854;9.302;2023-08-20T10:37:26;15.97;;;14.33;;
2099;SDS011;1055;48.854;9.302;2023-08-20T10:39:54;16.03;;;14.10;;
2099;SDS011;1055;48.854;9.302;2023-08-20T10:45:06;15.50;;;13.97;;
2099;SDS011;1055;48.854;9.302;2023-08-20T10:47:45;15.43;;;13.47;;
2099;SDS011;1055;48.854;9.302;2023-08-20T10:50:16;16.00;;;14.40;;
2099;SDS011;1055;48.854;9.302;2023-08-20T10:52:50;16.20;;;13.37;;
2099;SDS011;1055;48.854;9.302;2023-08-20T10:55:24;15.57;;;13.97;;
2099;SDS011;1055;48.854;9.302;2023-08-20T10:57:59;15.60;;;12.93;;
2099;SDS011;1055;48.854;9.302;2023-08-20T11:00:27;15.33;;;12.90;;
2099;SDS011;1055;48.854;9.302;2023-08-20T11:02:53;14.30;;;12.90;;
2099;SDS011;1055;48.854;9.302;2023-08-20T11:05:20;14.87;;;13.27;;
2099;SDS011;1055;48.854;9.302;2023-08-20T11:07:46;15.30;;;11.93;;
2099;SDS011;1055;48.854;9.302;2023-08-20T11:10:14;13.87;;;12.20;;
2099;SDS011;1055;48.854;9.302;2023-08-20T11:12:42;14.80;;;12.63;;
2099;SDS011;1055;48.854;9.302;2023-08-20T11:15:11;13.73;;;12.43;;
2099;SDS011;1055;48.854;9.302;2023-08-20T11:17:47;15.50;;;12.00;;
2099;SDS011;1055;48.854;9.302;2023-08-20T11:20:16;13.20;;;11.73;;
2099;SDS011;1055;48.854;9.302;2023-08-20T11:22:41;13.30;;;11.90;;
2099;SDS011;1055;48.854;9.302;2023-08-20T11:25:11;13.07;;;11.77;;
2099;SDS011;1055;48.854;9.302;2023-08-20T11:27:43;13.43;;;12.13;;
2099;SDS011;1055;48.854;9.302;2023-08-20T11:30:09;13.57;;;12.10;;
2099;SDS011;1055;48.854;9.302;2023-08-20T11:32:37;11.57;;;10.40;;
2099;SDS011;1055;48.854;9.302;2023-08-20T11:35:04;13.70;;;11.80;;
2099;SDS011;1055;48.854;9.302;2023-08-20T11:37:31;15.13;;;11.27;;
2099;SDS011;1055;48.854;9.302;2023-08-20T11:39:57;13.13;;;11.93;;
2099;SDS011;1055;48.854;9.302;2023-08-20T11:42:23;14.60;;;11.23;;
2099;SDS011;1055;48.854;9.302;2023-08-20T11:44:49;14.50;;;12.67;;
2099;SDS011;1055;48.854;9.302;2023-08-20T11:47:15;13.57;;;11.70;;
2099;SDS011;1055;48.854;9.302;2023-08-20T11:49:42;14.90;;;12.10;;
2099;SDS011;1055;48.854;9.302;2023-08-20T11:52:08;13.17;;;11.60;;
2099;SDS011;1055;48.854;9.302;2023-08-20T11:54:35;14.17;;;11.00;;
2099;SDS011;1055;48.854;9.302;2023-08-20T11:57:04;12.57;;;10.30;;
2099;SDS011;1055;48.854;9.302;2023-08-20T11:59:31;12.13;;;9.53;;
2099;SDS011;1055;48.854;9.302;2023-08-20T12:01:58;14.13;;;11.10;;
2099;SDS011;1055;48.854;9.302;2023-08-20T12:04:31;13.70;;;10.90;;
2099;SDS011;1055;48.854;9.302;2023-08-20T12:07:04;13.20;;;11.37;;
2099;SDS011;1055;48.854;9.302;2023-08-20T12:09:34;13.20;;;11.70;;
2099;SDS011;1055;48.854;9.302;2023-08-20T12:12:01;11.87;;;10.23;;
2099;SDS011;1055;48.854;9.302;2023-08-20T12:14:27;13.30;;;10.80;;
2099;SDS011;1055;48.854;9.302;2023-08-20T12:16:53;13.33;;;10.90;;
2099;SDS011;1055;48.854;9.302;2023-08-20T12:19:20;12.10;;;10.67;;
2099;SDS011;1055;48.854;9.302;2023-08-20T12:21:46;15.43;;;10.30;;
2099;SDS011;1055;48.854;9.302;2023-08-20T12:24:11;13.83;;;9.80;;
2099;SDS011;1055;48.854;9.302;2023-08-20T12:26:38;11.80;;;9.77;;
2099;SDS011;1055;48.854;9.302;2023-08-20T12:29:04;10.50;;;9.20;;
2099;SDS011;1055;48.854;9.302;2023-08-20T12:31:31;11.40;;;10.20;;
2099;SDS011;1055;48.854;9.302;2023-08-20T12:33:57;12.27;;;9.67;;
2099;SDS011;1055;48.854;9.302;2023-08-20T12:36:23;11.27;;;9.80;;
2099;SDS011;1055;48.854;9.302;2023-08-20T12:38:48;11.50;;;10.10;;
2099;SDS011;1055;48.854;9.302;2023-08-20T12:41:14;12.60;;;9.00;;
2099;SDS011;1055;48.854;9.302;2023-08-20T12:43:40;11.30;;;9.40;;
2099;SDS011;1055;48.854;9.302;2023-08-20T12:46:06;11.43;;;9.50;;
2099;SDS011;1055;48.854;9.302;2023-08-20T12:48:31;16.80;;;10.80;;
2099;SDS011;1055;48.854;9.302;2023-08-20T12:50:57;12.50;;;10.47;;
2099;SDS011;1055;48.854;9.302;2023-08-20T12:53:23;11.53;;;10.33;;
2099;SDS011;1055;48.854;9.302;2023-08-20T12:55:49;13.90;;;11.63;;
2099;SDS011;1055;48.854;9.302;2023-08-20T12:58:15;13.40;;;9.20;;
2099;SDS011;1055;48.854;9.302;2023-08-20T13:00:40;11.57;;;10.03;;
2099;SDS011;1055;48.854;9.302;2023-08-20T13:03:06;11.10;;;9.90;;
2099;SDS011;1055;48.854;9.302;2023-08-20T13:05:32;12.67;;;10.07;;
2099;SDS011;1055;48.854;9.302;2023-08-20T13:07:58;11.57;;;10.37;;
2099;SDS011;1055;48.854;9.302;2023-08-20T13:10:24;12.53;;;9.60;;
2099;SDS011;1055;48.854;9.302;2023-08-20T13:12:51;10.80;;;9.50;;
2099;SDS011;1055;48.854;9.302;2023-08-20T13:15:19;11.57;;;9.77;;
2099;SDS011;1055;48.854;9.302;2023-08-20T13:17:46;12.07;;;9.23;;
2099;SDS011;1055;48.854;9.302;2023-08-20T13:20:14;11.97;;;10.27;;
2099;SDS011;1055;48.854;9.302;2023-08-20T13:22:40;10.77;;;9.10;;
2099;SDS011;1055;48.854;9.302;2023-08-20T13:25:06;11.20;;;9.33;;
2099;SDS011;1055;48.854;9.302;2023-08-20T13:27:33;12.00;;;9.20;;
2099;SDS011;1055;48.854;9.302;2023-08-20T13:29:58;11.73;;;9.17;;
2099;SDS011;1055;48.854;9.302;2023-08-20T13:32:24;9.43;;;8.13;;
2099;SDS011;1055;48.854;9.302;2023-08-20T13:34:50;11.30;;;8.43;;
2099;SDS011;1055;48.854;9.302;2023-08-20T13:37:16;12.20;;;8.87;;
2099;SDS011;1055;48.854;9.302;2023-08-20T13:39:42;12.53;;;9.20;;
2099;SDS011;1055;48.854;9.302;2023-08-20T13:42:08;9.77;;;8.77;;
2099;SDS011;1055;48.854;9.302;2023-08-20T13:44:34;9.37;;;8.37;;
2099;SDS011;1055;48.854;9.302;2023-08-20T13:46:59;14.77;;;9.43;;
2099;SDS011;1055;48.854;9.302;2023-08-20T13:49:25;10.80;;;8.90;;
2099;SDS011;1055;48.854;9.302;2023-08-20T13:51:51;9.80;;;8.53;;
2099;SDS011;1055;48.854;9.302;2023-08-20T13:54:16;11.77;;;9.30;;
2099;SDS011;1055;48.854;9.302;2023-08-20T13:56:42;10.80;;;9.53;;
2099;SDS011;1055;48.854;9.302;2023-08-20T13:59:11;12.70;;;9.50;;
2099;SDS011;1055;48.854;9.302;2023-08-20T14:01:37;15.63;;;9.10;;
2099;SDS011;1055;48.854;9.302;2023-08-20T14:04:03;12.13;;;9.60;;
2099;SDS011;1055;48.854;9.302;2023-08-20T14:06:29;12.60;;;9.90;;
2099;SDS011;1055;48.854;9.302;2023-08-20T14:08:55;11.60;;;10.23;;
2099;SDS011;1055;48.854;9.302;2023-08-20T14:11:22;14.10;;;10.20;;
2099;SDS011;1055;48.854;9.302;2023-08-20T14:13:48;12.23;;;9.50;;
2099;SDS011;1055;48.854;9.302;2023-08-20T14:16:15;11.97;;;10.40;;
2099;SDS011;1055;48.854;9.302;2023-08-20T14:18:44;11.53;;;10.43;;
2099;SDS011;1055;48.854;9.302;2023-08-20T14:21:10;16.00;;;9.87;;
2099;SDS011;1055;48.854;9.302;2023-08-20T14:23:36;11.10;;;10.00;;
2099;SDS011;1055;48.854;9.302;2023-08-20T14:26:06;11.50;;;9.80;;
2099;SDS011;1055;48.854;9.302;2023-08-20T14:28:33;11.80;;;10.60;;
2099;SDS011;1055;48.854;9.302;2023-08-20T14:31:02;12.30;;;9.93;;
2099;SDS011;1055;48.854;9.302;2023-08-20T14:33:29;12.17;;;10.00;;
2099;SDS011;1055;48.854;9.302;2023-08-20T14:35:55;11.17;;;9.50;;
2099;SDS011;1055;48.854;9.302;2023-08-20T14:38:21;12.00;;;9.80;;
2099;SDS011;1055;48.854;9.302;2023-08-20T14:40:47;11.90;;;10.40;;
2099;SDS011;1055;48.854;9.302;2023-08-20T14:43:13;11.20;;;9.53;;
2099;SDS011;1055;48.854;9.302;2023-08-20T14:45:39;10.53;;;9.53;;
2099;SDS011;1055;48.854;9.302;2023-08-20T14:48:06;14.67;;;10.70;;
2099;SDS011;1055;48.854;9.302;2023-08-20T14:50:32;12.03;;;10.80;;
2099;SDS011;1055;48.854;9.302;2023-08-20T14:52:58;13.60;;;10.60;;
2099;SDS011;1055;48.854;9.302;2023-08-20T14:55:25;12.23;;;10.47;;
2099;SDS011;1055;48.854;9.302;2023-08-20T14:57:52;10.17;;;9.17;;
2099;SDS011;1055;48.854;9.302;2023-08-20T15:00:19;10.70;;;9.17;;
2099;SDS011;1055;48.854;9.302;2023-08-20T15:02:47;10.77;;;9.40;;
2099;SDS011;1055;48.854;9.302;2023-08-20T15:05:13;10.80;;;9.73;;
2099;SDS011;1055;48.854;9.302;2023-08-20T15:07:39;11.33;;;10.30;;